<?xml version="1.0" encoding="UTF-8" standalone="no" ?>
<gpx xmlns="http://www.topografix.com/GPX/1/1" xmlns:xsi="http://www.w3.org/2001/XMLSchema-instance" xsi:schemaLocation="http://www.topografix.com/GPX/1/1 http://www.topografix.com/GPX/1/1/gpx.xsd" version="1.1" creator="VisuGPX - https://www.visugpx.com">
  <metadata>
    <name>Trace de Lunas - Saint-Gervais-sur-Mare par le GR653, la voie d'Arles</name>
    <desc><![CDATA[LE CHEMIN VERS ST JACQUES DE COMPOSTELLE, VIA ARLES, ET TOULOUSE]]></desc>
  </metadata>
  <trk>
    <name><![CDATA[Lunas - Saint-Gervais-sur-Mare etapa 11 Vía Tolosana - Wikil... - Wikiloc]]></name>
    <extensions>
      <line xmlns="http://www.topografix.com/GPX/gpx_style/0/2">
        <color>0000FF</color>
        <width>4</width>
      </line>
    </extensions>
    <trkseg>
      <trkpt lat="43.7087" lon="3.1949">
        <ele>273.518</ele>
        <time>2024-09-04T04:28:17.987Z</time>
      </trkpt>
      <trkpt lat="43.70776" lon="3.19445">
        <ele>274.498</ele>
        <time>2024-09-04T04:29:51Z</time>
      </trkpt>
      <trkpt lat="43.70736" lon="3.19324">
        <ele>274.7</ele>
        <time>2024-09-04T04:31:44.999Z</time>
      </trkpt>
      <trkpt lat="43.70699" lon="3.1934">
        <ele>272.9</ele>
        <time>2024-09-04T04:32:47.998Z</time>
      </trkpt>
      <trkpt lat="43.70694" lon="3.19332">
        <ele>271.972</ele>
        <time>2024-09-04T04:33:00.998Z</time>
      </trkpt>
      <trkpt lat="43.70564" lon="3.19008">
        <ele>269.559</ele>
        <time>2024-09-04T04:37:16.997Z</time>
      </trkpt>
      <trkpt lat="43.70463" lon="3.18845">
        <ele>269.684</ele>
        <time>2024-09-04T04:39:36.996Z</time>
      </trkpt>
      <trkpt lat="43.7044" lon="3.18767">
        <ele>268.547</ele>
        <time>2024-09-04T04:40:30.996Z</time>
      </trkpt>
      <trkpt lat="43.70441" lon="3.18691">
        <ele>268.05</ele>
        <time>2024-09-04T04:41:34.996Z</time>
      </trkpt>
      <trkpt lat="43.70386" lon="3.18592">
        <ele>267.593</ele>
        <time>2024-09-04T04:42:57.996Z</time>
      </trkpt>
      <trkpt lat="43.70359" lon="3.18419">
        <ele>268.451</ele>
        <time>2024-09-04T04:45:05.995Z</time>
      </trkpt>
      <trkpt lat="43.70272" lon="3.18206">
        <ele>270.611</ele>
        <time>2024-09-04T04:47:34.995Z</time>
      </trkpt>
      <trkpt lat="43.7024" lon="3.17953">
        <ele>264.736</ele>
        <time>2024-09-04T04:50:17.995Z</time>
      </trkpt>
      <trkpt lat="43.7016" lon="3.17873">
        <ele>266.797</ele>
        <time>2024-09-04T04:52:16.995Z</time>
      </trkpt>
      <trkpt lat="43.70105" lon="3.17856">
        <ele>267.623</ele>
        <time>2024-09-04T04:53:03.995Z</time>
      </trkpt>
      <trkpt lat="43.70068" lon="3.17821">
        <ele>267.625</ele>
        <time>2024-09-04T04:53:42.995Z</time>
      </trkpt>
      <trkpt lat="43.70029" lon="3.1773">
        <ele>262.709</ele>
        <time>2024-09-04T04:54:43.995Z</time>
      </trkpt>
      <trkpt lat="43.69944" lon="3.1764">
        <ele>262.57</ele>
        <time>2024-09-04T04:56:15.995Z</time>
      </trkpt>
      <trkpt lat="43.69813" lon="3.17448">
        <ele>262.027</ele>
        <time>2024-09-04T04:59:51.995Z</time>
      </trkpt>
      <trkpt lat="43.69723" lon="3.17274">
        <ele>261.532</ele>
        <time>2024-09-04T05:02:04.995Z</time>
      </trkpt>
      <trkpt lat="43.69684" lon="3.17242">
        <ele>260.155</ele>
        <time>2024-09-04T05:02:42.995Z</time>
      </trkpt>
      <trkpt lat="43.69551" lon="3.17197">
        <ele>256.198</ele>
        <time>2024-09-04T05:04:36.995Z</time>
      </trkpt>
      <trkpt lat="43.6953" lon="3.17171">
        <ele>251.4</ele>
        <time>2024-09-04T05:04:53.995Z</time>
      </trkpt>
      <trkpt lat="43.69876" lon="3.16951">
        <ele>256.229</ele>
        <time>2024-09-04T05:10:14.995Z</time>
      </trkpt>
      <trkpt lat="43.69905" lon="3.16944">
        <ele>251.5</ele>
      </trkpt>
      <trkpt lat="43.6997" lon="3.16965">
        <ele>253.8</ele>
        <time>2024-09-04T05:11:32.995Z</time>
      </trkpt>
      <trkpt lat="43.69996" lon="3.16539">
        <ele>264.314</ele>
        <time>2024-09-04T05:16:11.993Z</time>
      </trkpt>
      <trkpt lat="43.70039" lon="3.1642">
        <ele>271.329</ele>
        <time>2024-09-04T05:17:38.993Z</time>
      </trkpt>
      <trkpt lat="43.70026" lon="3.16392">
        <ele>272.2</ele>
      </trkpt>
      <trkpt lat="43.69964" lon="3.16359">
        <ele>285.1</ele>
        <time>2024-09-04T05:19:17.993Z</time>
      </trkpt>
      <trkpt lat="43.69897" lon="3.16343">
        <ele>292</ele>
        <time>2024-09-04T05:21:01.993Z</time>
      </trkpt>
      <trkpt lat="43.69882" lon="3.16335">
        <ele>295.009</ele>
        <time>2024-09-04T05:21:13.993Z</time>
      </trkpt>
      <trkpt lat="43.6988" lon="3.16323">
        <ele>292.9</ele>
        <time>2024-09-04T05:21:43.993Z</time>
      </trkpt>
      <trkpt lat="43.69905" lon="3.16303">
        <ele>298.89</ele>
        <time>2024-09-04T05:22:10.993Z</time>
      </trkpt>
      <trkpt lat="43.69917" lon="3.16285">
        <ele>303.5</ele>
      </trkpt>
      <trkpt lat="43.69923" lon="3.16261">
        <ele>304.1</ele>
      </trkpt>
      <trkpt lat="43.69931" lon="3.16244">
        <ele>303.5</ele>
        <time>2024-09-04T05:23:34.993Z</time>
      </trkpt>
      <trkpt lat="43.6996" lon="3.1622">
        <ele>299.2</ele>
        <time>2024-09-04T05:24:04.993Z</time>
      </trkpt>
      <trkpt lat="43.69971" lon="3.1616">
        <ele>294</ele>
        <time>2024-09-04T05:24:36.993Z</time>
      </trkpt>
      <trkpt lat="43.69972" lon="3.1615">
        <ele>294</ele>
        <time>2024-09-04T05:24:58.993Z</time>
      </trkpt>
      <trkpt lat="43.69998" lon="3.16059">
        <ele>297.7</ele>
      </trkpt>
      <trkpt lat="43.70024" lon="3.15991">
        <ele>302.722</ele>
        <time>2024-09-04T05:27:23.991Z</time>
      </trkpt>
      <trkpt lat="43.7005" lon="3.15835">
        <ele>313.312</ele>
        <time>2024-09-04T05:29:10.991Z</time>
      </trkpt>
      <trkpt lat="43.70099" lon="3.15714">
        <ele>324.487</ele>
        <time>2024-09-04T05:31:18.991Z</time>
      </trkpt>
      <trkpt lat="43.70157" lon="3.15606">
        <ele>336.4</ele>
        <time>2024-09-04T05:33:16.991Z</time>
      </trkpt>
      <trkpt lat="43.70165" lon="3.15591">
        <ele>338</ele>
      </trkpt>
      <trkpt lat="43.70226" lon="3.15621">
        <ele>337.629</ele>
        <time>2024-09-04T05:34:02.991Z</time>
      </trkpt>
      <trkpt lat="43.7024" lon="3.15621">
        <ele>340.7</ele>
      </trkpt>
      <trkpt lat="43.70257" lon="3.15612">
        <ele>342.4</ele>
      </trkpt>
      <trkpt lat="43.70267" lon="3.15617">
        <ele>342.7</ele>
        <time>2024-09-04T05:35:50.990Z</time>
      </trkpt>
      <trkpt lat="43.70275" lon="3.15606">
        <ele>344.7</ele>
      </trkpt>
      <trkpt lat="43.70271" lon="3.15602">
        <ele>345</ele>
      </trkpt>
      <trkpt lat="43.70284" lon="3.15586">
        <ele>349.2</ele>
        <time>2024-09-04T05:36:26.990Z</time>
      </trkpt>
      <trkpt lat="43.7028" lon="3.15575">
        <ele>350.4</ele>
      </trkpt>
      <trkpt lat="43.70281" lon="3.15575">
        <ele>350.6</ele>
      </trkpt>
      <trkpt lat="43.70283" lon="3.15565">
        <ele>352.2</ele>
      </trkpt>
      <trkpt lat="43.70278" lon="3.15554">
        <ele>353.2</ele>
        <time>2024-09-04T05:37:08.990Z</time>
      </trkpt>
      <trkpt lat="43.70292" lon="3.15537">
        <ele>357.5</ele>
      </trkpt>
      <trkpt lat="43.70302" lon="3.1552">
        <ele>361.9</ele>
        <time>2024-09-04T05:39:00.989Z</time>
      </trkpt>
      <trkpt lat="43.70294" lon="3.15493">
        <ele>365</ele>
      </trkpt>
      <trkpt lat="43.70268" lon="3.15411">
        <ele>369.957</ele>
        <time>2024-09-04T05:46:21.988Z</time>
      </trkpt>
      <trkpt lat="43.70236" lon="3.15369">
        <ele>375.8</ele>
      </trkpt>
      <trkpt lat="43.70209" lon="3.15288">
        <ele>386.7</ele>
      </trkpt>
      <trkpt lat="43.70191" lon="3.15254">
        <ele>391</ele>
        <time>2024-09-04T05:55:57.986Z</time>
      </trkpt>
      <trkpt lat="43.70203" lon="3.15238">
        <ele>396.2</ele>
      </trkpt>
      <trkpt lat="43.70204" lon="3.15218">
        <ele>400.3</ele>
        <time>2024-09-04T05:58:01.985Z</time>
      </trkpt>
      <trkpt lat="43.70199" lon="3.15201">
        <ele>402.4</ele>
      </trkpt>
      <trkpt lat="43.70199" lon="3.15184">
        <ele>405.9</ele>
      </trkpt>
      <trkpt lat="43.70194" lon="3.15169">
        <ele>408.5</ele>
        <time>2024-09-04T06:00:19.984Z</time>
      </trkpt>
      <trkpt lat="43.70169" lon="3.15137">
        <ele>410.8</ele>
      </trkpt>
      <trkpt lat="43.70156" lon="3.15138">
        <ele>409.4</ele>
        <time>2024-09-04T06:02:34.984Z</time>
      </trkpt>
      <trkpt lat="43.7014" lon="3.15111">
        <ele>414.1</ele>
      </trkpt>
      <trkpt lat="43.70122" lon="3.15087">
        <ele>418</ele>
      </trkpt>
      <trkpt lat="43.70109" lon="3.15077">
        <ele>419.1</ele>
      </trkpt>
      <trkpt lat="43.70104" lon="3.15067">
        <ele>420.1</ele>
        <time>2024-09-04T06:05:04.983Z</time>
      </trkpt>
      <trkpt lat="43.70098" lon="3.15044">
        <ele>415.129</ele>
        <time>2024-09-04T06:05:43.983Z</time>
      </trkpt>
      <trkpt lat="43.7008" lon="3.14996">
        <ele>429.4</ele>
      </trkpt>
      <trkpt lat="43.7006" lon="3.14971">
        <ele>424.287</ele>
        <time>2024-09-04T06:08:24.983Z</time>
      </trkpt>
      <trkpt lat="43.70022" lon="3.14936">
        <ele>440.8</ele>
        <time>2024-09-04T06:11:14.983Z</time>
      </trkpt>
      <trkpt lat="43.70015" lon="3.14916">
        <ele>445.3</ele>
        <time>2024-09-04T06:13:08.983Z</time>
      </trkpt>
      <trkpt lat="43.69969" lon="3.14868">
        <ele>454.3</ele>
      </trkpt>
      <trkpt lat="43.69944" lon="3.14874">
        <ele>455.9</ele>
        <time>2024-09-04T06:15:53.981Z</time>
      </trkpt>
      <trkpt lat="43.69923" lon="3.14878">
        <ele>459.1</ele>
        <time>2024-09-04T06:16:59.981Z</time>
      </trkpt>
      <trkpt lat="43.6991" lon="3.14859">
        <ele>463</ele>
      </trkpt>
      <trkpt lat="43.69882" lon="3.14739">
        <ele>471.086</ele>
        <time>2024-09-04T06:20:16.980Z</time>
      </trkpt>
      <trkpt lat="43.69877" lon="3.14724">
        <ele>486.6</ele>
        <time>2024-09-04T06:20:43.980Z</time>
      </trkpt>
      <trkpt lat="43.69882" lon="3.14706">
        <ele>494</ele>
        <time>2024-09-04T06:21:22.980Z</time>
      </trkpt>
      <trkpt lat="43.69871" lon="3.14682">
        <ele>484.587</ele>
        <time>2024-09-04T06:21:57.980Z</time>
      </trkpt>
      <trkpt lat="43.69812" lon="3.14641">
        <ele>521.9</ele>
        <time>2024-09-04T06:24:43.980Z</time>
      </trkpt>
      <trkpt lat="43.69801" lon="3.14625">
        <ele>524.3</ele>
      </trkpt>
      <trkpt lat="43.698" lon="3.14558">
        <ele>530.2</ele>
        <time>2024-09-04T06:26:03.980Z</time>
      </trkpt>
      <trkpt lat="43.6981" lon="3.14505">
        <ele>536.3</ele>
        <time>2024-09-04T06:28:13.980Z</time>
      </trkpt>
      <trkpt lat="43.69806" lon="3.14471">
        <ele>536.7</ele>
        <time>2024-09-04T06:30:42.979Z</time>
      </trkpt>
      <trkpt lat="43.69803" lon="3.14457">
        <ele>537.6</ele>
      </trkpt>
      <trkpt lat="43.6981" lon="3.1444">
        <ele>546.2</ele>
      </trkpt>
      <trkpt lat="43.69807" lon="3.14416">
        <ele>549.1</ele>
      </trkpt>
      <trkpt lat="43.69831" lon="3.14184">
        <ele>563.52</ele>
        <time>2024-09-04T06:40:09.977Z</time>
      </trkpt>
      <trkpt lat="43.69825" lon="3.14169">
        <ele>577.6</ele>
      </trkpt>
      <trkpt lat="43.69767" lon="3.14162">
        <ele>585.9</ele>
      </trkpt>
      <trkpt lat="43.69707" lon="3.14144">
        <ele>582.309</ele>
        <time>2024-09-04T06:44:30.976Z</time>
      </trkpt>
      <trkpt lat="43.69693" lon="3.14083">
        <ele>609.7</ele>
      </trkpt>
      <trkpt lat="43.69691" lon="3.1403">
        <ele>616.1</ele>
      </trkpt>
      <trkpt lat="43.69684" lon="3.14005">
        <ele>618.3</ele>
        <time>2024-09-04T06:47:52.976Z</time>
      </trkpt>
      <trkpt lat="43.69643" lon="3.13996">
        <ele>615.4</ele>
      </trkpt>
      <trkpt lat="43.69588" lon="3.1399">
        <ele>601.335</ele>
        <time>2024-09-04T06:50:02.976Z</time>
      </trkpt>
      <trkpt lat="43.69539" lon="3.13941">
        <ele>613.7</ele>
        <time>2024-09-04T06:51:35.976Z</time>
      </trkpt>
      <trkpt lat="43.6953" lon="3.13926">
        <ele>612.8</ele>
        <time>2024-09-04T06:51:45.976Z</time>
      </trkpt>
      <trkpt lat="43.69505" lon="3.1392">
        <ele>609.2</ele>
        <time>2024-09-04T06:52:04.976Z</time>
      </trkpt>
      <trkpt lat="43.69397" lon="3.13918">
        <ele>616.1</ele>
      </trkpt>
      <trkpt lat="43.69388" lon="3.13902">
        <ele>620.6</ele>
        <time>2024-09-04T06:56:06.976Z</time>
      </trkpt>
      <trkpt lat="43.69387" lon="3.13876">
        <ele>623.6</ele>
      </trkpt>
      <trkpt lat="43.69395" lon="3.13853">
        <ele>609.057</ele>
        <time>2024-09-04T06:58:06.976Z</time>
      </trkpt>
      <trkpt lat="43.69433" lon="3.13779">
        <ele>632.7</ele>
      </trkpt>
      <trkpt lat="43.69459" lon="3.13721">
        <ele>639</ele>
        <time>2024-09-04T07:00:30.976Z</time>
      </trkpt>
      <trkpt lat="43.69456" lon="3.13637">
        <ele>642.2</ele>
      </trkpt>
      <trkpt lat="43.69454" lon="3.13616">
        <ele>640.9</ele>
      </trkpt>
      <trkpt lat="43.69463" lon="3.13539">
        <ele>647.3</ele>
        <time>2024-09-04T07:03:18.976Z</time>
      </trkpt>
      <trkpt lat="43.69463" lon="3.13515">
        <ele>648.6</ele>
      </trkpt>
      <trkpt lat="43.6945" lon="3.13463">
        <ele>648.1</ele>
      </trkpt>
      <trkpt lat="43.69443" lon="3.13449">
        <ele>632.578</ele>
        <time>2024-09-04T07:04:35.976Z</time>
      </trkpt>
      <trkpt lat="43.69433" lon="3.13426">
        <ele>655.2</ele>
      </trkpt>
      <trkpt lat="43.69369" lon="3.13344">
        <ele>659.2</ele>
        <time>2024-09-04T07:06:54.976Z</time>
      </trkpt>
      <trkpt lat="43.6937" lon="3.13327">
        <ele>660.3</ele>
      </trkpt>
      <trkpt lat="43.69387" lon="3.133">
        <ele>661.1</ele>
      </trkpt>
      <trkpt lat="43.69404" lon="3.13289">
        <ele>665.1</ele>
      </trkpt>
      <trkpt lat="43.69416" lon="3.13263">
        <ele>664.1</ele>
      </trkpt>
      <trkpt lat="43.69459" lon="3.13208">
        <ele>666.3</ele>
        <time>2024-09-04T07:09:57.976Z</time>
      </trkpt>
      <trkpt lat="43.69497" lon="3.13172">
        <ele>670.4</ele>
      </trkpt>
      <trkpt lat="43.69516" lon="3.13158">
        <ele>671.7</ele>
      </trkpt>
      <trkpt lat="43.69533" lon="3.13156">
        <ele>655.209</ele>
        <time>2024-09-04T07:12:01.976Z</time>
      </trkpt>
      <trkpt lat="43.69543" lon="3.13175">
        <ele>673.6</ele>
        <time>2024-09-04T07:12:09.976Z</time>
      </trkpt>
      <trkpt lat="43.69627" lon="3.13256">
        <ele>652.425</ele>
        <time>2024-09-04T07:13:42.976Z</time>
      </trkpt>
      <trkpt lat="43.69764" lon="3.13322">
        <ele>647.38</ele>
        <time>2024-09-04T07:16:12.975Z</time>
      </trkpt>
      <trkpt lat="43.69816" lon="3.13399">
        <ele>660.1</ele>
        <time>2024-09-04T07:17:15.975Z</time>
      </trkpt>
      <trkpt lat="43.69858" lon="3.13449">
        <ele>659.8</ele>
        <time>2024-09-04T07:18:03.975Z</time>
      </trkpt>
      <trkpt lat="43.69867" lon="3.13446">
        <ele>659.4</ele>
      </trkpt>
      <trkpt lat="43.69872" lon="3.13435">
        <ele>656.2</ele>
      </trkpt>
      <trkpt lat="43.69914" lon="3.13407">
        <ele>655</ele>
        <time>2024-09-04T07:19:14.975Z</time>
      </trkpt>
      <trkpt lat="43.69945" lon="3.13416">
        <ele>653.9</ele>
        <time>2024-09-04T07:19:52.975Z</time>
      </trkpt>
      <trkpt lat="43.69957" lon="3.13413">
        <ele>656.7</ele>
      </trkpt>
      <trkpt lat="43.69963" lon="3.13363">
        <ele>651.5</ele>
      </trkpt>
      <trkpt lat="43.69959" lon="3.13303">
        <ele>634.617</ele>
        <time>2024-09-04T07:21:46.975Z</time>
      </trkpt>
      <trkpt lat="43.69973" lon="3.13253">
        <ele>645.8</ele>
      </trkpt>
      <trkpt lat="43.69988" lon="3.13242">
        <ele>632.342</ele>
        <time>2024-09-04T07:22:37.975Z</time>
      </trkpt>
      <trkpt lat="43.70007" lon="3.13227">
        <ele>643.9</ele>
      </trkpt>
      <trkpt lat="43.70057" lon="3.13215">
        <ele>629.693</ele>
        <time>2024-09-04T07:23:54.975Z</time>
      </trkpt>
      <trkpt lat="43.70138" lon="3.13242">
        <ele>643.265</ele>
        <time>2024-09-04T07:25:05.975Z</time>
      </trkpt>
      <trkpt lat="43.70183" lon="3.13215">
        <ele>639.021</ele>
        <time>2024-09-04T07:25:48.975Z</time>
      </trkpt>
      <trkpt lat="43.70198" lon="3.13168">
        <ele>634.2</ele>
      </trkpt>
      <trkpt lat="43.70201" lon="3.13125">
        <ele>632.5</ele>
      </trkpt>
      <trkpt lat="43.70197" lon="3.13109">
        <ele>634.809</ele>
        <time>2024-09-04T07:26:56.975Z</time>
      </trkpt>
      <trkpt lat="43.70165" lon="3.13079">
        <ele>629.3</ele>
      </trkpt>
      <trkpt lat="43.70116" lon="3.13003">
        <ele>629.94</ele>
        <time>2024-09-04T07:28:50.975Z</time>
      </trkpt>
      <trkpt lat="43.70028" lon="3.12941">
        <ele>620.4</ele>
      </trkpt>
      <trkpt lat="43.70013" lon="3.12921">
        <ele>624.667</ele>
        <time>2024-09-04T07:30:32.975Z</time>
      </trkpt>
      <trkpt lat="43.70012" lon="3.1287">
        <ele>618.3</ele>
      </trkpt>
      <trkpt lat="43.70013" lon="3.12821">
        <ele>616.4</ele>
      </trkpt>
      <trkpt lat="43.70026" lon="3.12724">
        <ele>618.412</ele>
        <time>2024-09-04T07:32:43.975Z</time>
      </trkpt>
      <trkpt lat="43.7001" lon="3.12692">
        <ele>612.6</ele>
      </trkpt>
      <trkpt lat="43.69969" lon="3.12637">
        <ele>614.045</ele>
        <time>2024-09-04T07:33:55.975Z</time>
      </trkpt>
      <trkpt lat="43.69973" lon="3.12591">
        <ele>612.458</ele>
        <time>2024-09-04T07:34:25.975Z</time>
      </trkpt>
      <trkpt lat="43.69998" lon="3.12555">
        <ele>610.371</ele>
        <time>2024-09-04T07:34:59.975Z</time>
      </trkpt>
      <trkpt lat="43.70034" lon="3.12518">
        <ele>601.9</ele>
      </trkpt>
      <trkpt lat="43.70085" lon="3.12496">
        <ele>606.249</ele>
        <time>2024-09-04T07:37:30.974Z</time>
      </trkpt>
      <trkpt lat="43.70122" lon="3.12486">
        <ele>598.7</ele>
      </trkpt>
      <trkpt lat="43.7016" lon="3.12496">
        <ele>599.6</ele>
        <time>2024-09-04T07:38:31.974Z</time>
      </trkpt>
      <trkpt lat="43.70206" lon="3.1238">
        <ele>593.1</ele>
      </trkpt>
      <trkpt lat="43.70227" lon="3.12344">
        <ele>597.834</ele>
        <time>2024-09-04T07:40:22.974Z</time>
      </trkpt>
      <trkpt lat="43.70236" lon="3.12322">
        <ele>590.6</ele>
      </trkpt>
      <trkpt lat="43.70251" lon="3.12324">
        <ele>590.5</ele>
      </trkpt>
      <trkpt lat="43.70257" lon="3.12303">
        <ele>589.4</ele>
        <time>2024-09-04T07:41:06.974Z</time>
      </trkpt>
      <trkpt lat="43.70264" lon="3.12284">
        <ele>595.076</ele>
        <time>2024-09-04T07:41:17.974Z</time>
      </trkpt>
      <trkpt lat="43.70335" lon="3.12153">
        <ele>599.113</ele>
        <time>2024-09-04T07:43:14.974Z</time>
      </trkpt>
      <trkpt lat="43.70376" lon="3.12127">
        <ele>600.609</ele>
        <time>2024-09-04T07:43:56.974Z</time>
      </trkpt>
      <trkpt lat="43.70407" lon="3.12046">
        <ele>602.452</ele>
        <time>2024-09-04T07:44:52.974Z</time>
      </trkpt>
      <trkpt lat="43.70453" lon="3.11992">
        <ele>605.619</ele>
        <time>2024-09-04T07:45:56.974Z</time>
      </trkpt>
      <trkpt lat="43.70504" lon="3.11976">
        <ele>607.374</ele>
        <time>2024-09-04T07:46:43.974Z</time>
      </trkpt>
      <trkpt lat="43.70588" lon="3.11903">
        <ele>610.627</ele>
        <time>2024-09-04T07:48:16.974Z</time>
      </trkpt>
      <trkpt lat="43.70599" lon="3.11887">
        <ele>607.7</ele>
      </trkpt>
      <trkpt lat="43.70609" lon="3.11843">
        <ele>611.1</ele>
      </trkpt>
      <trkpt lat="43.70622" lon="3.11825">
        <ele>615</ele>
        <time>2024-09-04T07:49:09.974Z</time>
      </trkpt>
      <trkpt lat="43.70652" lon="3.1182">
        <ele>617.3</ele>
      </trkpt>
      <trkpt lat="43.70666" lon="3.11831">
        <ele>614.423</ele>
        <time>2024-09-04T07:49:49.974Z</time>
      </trkpt>
      <trkpt lat="43.70758" lon="3.11874">
        <ele>617.441</ele>
        <time>2024-09-04T07:51:36.974Z</time>
      </trkpt>
      <trkpt lat="43.70775" lon="3.11849">
        <ele>617.821</ele>
        <time>2024-09-04T07:52:01.974Z</time>
      </trkpt>
      <trkpt lat="43.70777" lon="3.11763">
        <ele>618.366</ele>
        <time>2024-09-04T07:53:34.974Z</time>
      </trkpt>
      <trkpt lat="43.70741" lon="3.1173">
        <ele>618.6</ele>
      </trkpt>
      <trkpt lat="43.70692" lon="3.11701">
        <ele>620.578</ele>
        <time>2024-09-04T07:54:57.974Z</time>
      </trkpt>
      <trkpt lat="43.70655" lon="3.11635">
        <ele>621.033</ele>
        <time>2024-09-04T07:55:49.974Z</time>
      </trkpt>
      <trkpt lat="43.70671" lon="3.1156">
        <ele>618.5</ele>
      </trkpt>
      <trkpt lat="43.70672" lon="3.11519">
        <ele>622.026</ele>
        <time>2024-09-04T07:57:05.974Z</time>
      </trkpt>
      <trkpt lat="43.70642" lon="3.11495">
        <ele>618.6</ele>
      </trkpt>
      <trkpt lat="43.70599" lon="3.11475">
        <ele>623.609</ele>
        <time>2024-09-04T07:58:19.974Z</time>
      </trkpt>
      <trkpt lat="43.70557" lon="3.11428">
        <ele>623.5</ele>
      </trkpt>
      <trkpt lat="43.70504" lon="3.11397">
        <ele>624.1</ele>
        <time>2024-09-04T08:00:10.974Z</time>
      </trkpt>
      <trkpt lat="43.70495" lon="3.1137">
        <ele>624.8</ele>
        <time>2024-09-04T08:00:25.973Z</time>
      </trkpt>
      <trkpt lat="43.70576" lon="3.1125">
        <ele>631.23</ele>
        <time>2024-09-04T08:02:11.973Z</time>
      </trkpt>
      <trkpt lat="43.70598" lon="3.11139">
        <ele>635.8</ele>
      </trkpt>
      <trkpt lat="43.70634" lon="3.11018">
        <ele>645.733</ele>
        <time>2024-09-04T08:05:12.971Z</time>
      </trkpt>
      <trkpt lat="43.70689" lon="3.10949">
        <ele>648.726</ele>
        <time>2024-09-04T08:06:30.971Z</time>
      </trkpt>
      <trkpt lat="43.70756" lon="3.1094">
        <ele>646.3</ele>
        <time>2024-09-04T08:07:23.970Z</time>
      </trkpt>
      <trkpt lat="43.70805" lon="3.10923">
        <ele>647</ele>
        <time>2024-09-04T08:08:41.970Z</time>
      </trkpt>
      <trkpt lat="43.70818" lon="3.10898">
        <ele>648.1</ele>
      </trkpt>
      <trkpt lat="43.70813" lon="3.10855">
        <ele>651.8</ele>
      </trkpt>
      <trkpt lat="43.70802" lon="3.10822">
        <ele>659.177</ele>
        <time>2024-09-04T08:10:21.969Z</time>
      </trkpt>
      <trkpt lat="43.70747" lon="3.10751">
        <ele>659.6</ele>
        <time>2024-09-04T08:11:40.968Z</time>
      </trkpt>
      <trkpt lat="43.70757" lon="3.10606">
        <ele>667.2</ele>
        <time>2024-09-04T08:13:59.967Z</time>
      </trkpt>
      <trkpt lat="43.708" lon="3.10523">
        <ele>669.059</ele>
        <time>2024-09-04T08:15:03.967Z</time>
      </trkpt>
      <trkpt lat="43.7087" lon="3.10482">
        <ele>657.3</ele>
        <time>2024-09-04T08:16:13.966Z</time>
      </trkpt>
      <trkpt lat="43.70883" lon="3.1038">
        <ele>659.209</ele>
        <time>2024-09-04T08:17:18.965Z</time>
      </trkpt>
      <trkpt lat="43.70921" lon="3.1029">
        <ele>653.776</ele>
        <time>2024-09-04T08:18:23.965Z</time>
      </trkpt>
      <trkpt lat="43.70923" lon="3.10261">
        <ele>645.3</ele>
      </trkpt>
      <trkpt lat="43.70917" lon="3.10236">
        <ele>651.013</ele>
        <time>2024-09-04T08:18:58.965Z</time>
      </trkpt>
      <trkpt lat="43.7085" lon="3.10087">
        <ele>644.248</ele>
        <time>2024-09-04T08:20:57.964Z</time>
      </trkpt>
      <trkpt lat="43.70826" lon="3.09984">
        <ele>648.231</ele>
        <time>2024-09-04T08:22:11.963Z</time>
      </trkpt>
      <trkpt lat="43.70903" lon="3.09873">
        <ele>653.744</ele>
        <time>2024-09-04T08:23:59.962Z</time>
      </trkpt>
      <trkpt lat="43.7095" lon="3.09741">
        <ele>651.9</ele>
      </trkpt>
      <trkpt lat="43.71012" lon="3.09616">
        <ele>662.2</ele>
      </trkpt>
      <trkpt lat="43.71009" lon="3.09593">
        <ele>662.8</ele>
        <time>2024-09-04T08:27:25.961Z</time>
      </trkpt>
      <trkpt lat="43.70968" lon="3.09562">
        <ele>657.7</ele>
      </trkpt>
      <trkpt lat="43.70927" lon="3.09495">
        <ele>666.915</ele>
        <time>2024-09-04T08:29:17.960Z</time>
      </trkpt>
      <trkpt lat="43.70822" lon="3.09428">
        <ele>667.5</ele>
      </trkpt>
      <trkpt lat="43.70804" lon="3.09419">
        <ele>667.8</ele>
      </trkpt>
      <trkpt lat="43.70802" lon="3.09403">
        <ele>674.485</ele>
        <time>2024-09-04T08:31:49.959Z</time>
      </trkpt>
      <trkpt lat="43.70815" lon="3.09379">
        <ele>671.5</ele>
      </trkpt>
      <trkpt lat="43.70883" lon="3.09324">
        <ele>676.2</ele>
        <time>2024-09-04T08:43:32.958Z</time>
      </trkpt>
      <trkpt lat="43.70932" lon="3.09329">
        <ele>686.148</ele>
        <time>2024-09-04T08:44:37.957Z</time>
      </trkpt>
      <trkpt lat="43.71" lon="3.09288">
        <ele>690.361</ele>
        <time>2024-09-04T08:45:45.957Z</time>
      </trkpt>
      <trkpt lat="43.71148" lon="3.09151">
        <ele>701.117</ele>
        <time>2024-09-04T08:48:32.956Z</time>
      </trkpt>
      <trkpt lat="43.71201" lon="3.09023">
        <ele>712.109</ele>
        <time>2024-09-04T08:50:43.955Z</time>
      </trkpt>
      <trkpt lat="43.71254" lon="3.0895">
        <ele>718.795</ele>
        <time>2024-09-04T08:52:02.954Z</time>
      </trkpt>
      <trkpt lat="43.71259" lon="3.08917">
        <ele>721.042</ele>
        <time>2024-09-04T08:52:28.954Z</time>
      </trkpt>
      <trkpt lat="43.71194" lon="3.08708">
        <ele>738.517</ele>
        <time>2024-09-04T08:56:09.953Z</time>
      </trkpt>
      <trkpt lat="43.7118" lon="3.08554">
        <ele>749.42</ele>
        <time>2024-09-04T08:58:06.953Z</time>
      </trkpt>
      <trkpt lat="43.7115" lon="3.08422">
        <ele>761.093</ele>
        <time>2024-09-04T08:59:54.953Z</time>
      </trkpt>
      <trkpt lat="43.71143" lon="3.08218">
        <ele>778.466</ele>
        <time>2024-09-04T09:02:39.953Z</time>
      </trkpt>
      <trkpt lat="43.71163" lon="3.08127">
        <ele>783.394</ele>
        <time>2024-09-04T09:03:50.953Z</time>
      </trkpt>
      <trkpt lat="43.7123" lon="3.08031">
        <ele>795.424</ele>
        <time>2024-09-04T09:05:52.953Z</time>
      </trkpt>
      <trkpt lat="43.71186" lon="3.08054">
        <ele>798.439</ele>
        <time>2024-09-04T09:06:37.953Z</time>
      </trkpt>
      <trkpt lat="43.71129" lon="3.08124">
        <ele>805.237</ele>
        <time>2024-09-04T09:07:53.953Z</time>
      </trkpt>
      <trkpt lat="43.71097" lon="3.08201">
        <ele>810.349</ele>
        <time>2024-09-04T09:09:02.953Z</time>
      </trkpt>
      <trkpt lat="43.71077" lon="3.08342">
        <ele>813.413</ele>
        <time>2024-09-04T09:10:38.953Z</time>
      </trkpt>
      <trkpt lat="43.71042" lon="3.08396">
        <ele>816.409</ele>
        <time>2024-09-04T09:11:34.953Z</time>
      </trkpt>
      <trkpt lat="43.71066" lon="3.08341">
        <ele>819.874</ele>
        <time>2024-09-04T09:12:38.953Z</time>
      </trkpt>
      <trkpt lat="43.71063" lon="3.0819">
        <ele>831.951</ele>
        <time>2024-09-04T09:15:00.952Z</time>
      </trkpt>
      <trkpt lat="43.7109" lon="3.0801">
        <ele>848.586</ele>
        <time>2024-09-04T09:17:39.952Z</time>
      </trkpt>
      <trkpt lat="43.71151" lon="3.07936">
        <ele>856.619</ele>
        <time>2024-09-04T09:19:11.952Z</time>
      </trkpt>
      <trkpt lat="43.71085" lon="3.07924">
        <ele>850.692</ele>
        <time>2024-09-04T09:20:17.951Z</time>
      </trkpt>
      <trkpt lat="43.71036" lon="3.07891">
        <ele>846.375</ele>
        <time>2024-09-04T09:21:03.951Z</time>
      </trkpt>
      <trkpt lat="43.71004" lon="3.0784">
        <ele>842.963</ele>
        <time>2024-09-04T09:21:51.951Z</time>
      </trkpt>
      <trkpt lat="43.71003" lon="3.07778">
        <ele>839.713</ele>
        <time>2024-09-04T09:22:32.951Z</time>
      </trkpt>
      <trkpt lat="43.70981" lon="3.0776">
        <ele>838.278</ele>
        <time>2024-09-04T09:22:55.951Z</time>
      </trkpt>
      <trkpt lat="43.70948" lon="3.07749">
        <ele>836.856</ele>
        <time>2024-09-04T09:23:24.951Z</time>
      </trkpt>
      <trkpt lat="43.70899" lon="3.07768">
        <ele>835.359</ele>
        <time>2024-09-04T09:24:08.951Z</time>
      </trkpt>
      <trkpt lat="43.70847" lon="3.07747">
        <ele>832.014</ele>
        <time>2024-09-04T09:24:54.951Z</time>
      </trkpt>
      <trkpt lat="43.70795" lon="3.07746">
        <ele>834.209</ele>
        <time>2024-09-04T09:25:43.951Z</time>
      </trkpt>
      <trkpt lat="43.70752" lon="3.07721">
        <ele>835.876</ele>
        <time>2024-09-04T09:26:52.950Z</time>
      </trkpt>
      <trkpt lat="43.70735" lon="3.07643">
        <ele>837.893</ele>
        <time>2024-09-04T09:28:05.950Z</time>
      </trkpt>
      <trkpt lat="43.70722" lon="3.07375">
        <ele>854.268</ele>
        <time>2024-09-04T09:31:29.949Z</time>
      </trkpt>
      <trkpt lat="43.70678" lon="3.0725">
        <ele>864.531</ele>
        <time>2024-09-04T09:33:15.949Z</time>
      </trkpt>
      <trkpt lat="43.70732" lon="3.07145">
        <ele>876.284</ele>
        <time>2024-09-04T09:34:58.949Z</time>
      </trkpt>
      <trkpt lat="43.70842" lon="3.07089">
        <ele>889.467</ele>
        <time>2024-09-04T09:37:08.949Z</time>
      </trkpt>
      <trkpt lat="43.70862" lon="3.07065">
        <ele>892.485</ele>
        <time>2024-09-04T09:37:41.949Z</time>
      </trkpt>
      <trkpt lat="43.70915" lon="3.0693">
        <ele>903.685</ele>
        <time>2024-09-04T09:39:41.949Z</time>
      </trkpt>
      <trkpt lat="43.70994" lon="3.06824">
        <ele>916.36</ele>
        <time>2024-09-04T09:41:48.949Z</time>
      </trkpt>
      <trkpt lat="43.71066" lon="3.06643">
        <ele>930.738</ele>
        <time>2024-09-04T09:44:40.949Z</time>
      </trkpt>
      <trkpt lat="43.71082" lon="3.06524">
        <ele>938.57</ele>
        <time>2024-09-04T09:46:23.949Z</time>
      </trkpt>
      <trkpt lat="43.70999" lon="3.06501">
        <ele>939.817</ele>
        <time>2024-09-04T09:48:15.948Z</time>
      </trkpt>
      <trkpt lat="43.7097" lon="3.06517">
        <ele>939.409</ele>
        <time>2024-09-04T09:48:44.948Z</time>
      </trkpt>
      <trkpt lat="43.70879" lon="3.06735">
        <ele>934.814</ele>
        <time>2024-09-04T09:51:27.947Z</time>
      </trkpt>
      <trkpt lat="43.70845" lon="3.06785">
        <ele>932.321</ele>
        <time>2024-09-04T09:52:10.946Z</time>
      </trkpt>
      <trkpt lat="43.70804" lon="3.06813">
        <ele>930.176</ele>
        <time>2024-09-04T09:52:49.946Z</time>
      </trkpt>
      <trkpt lat="43.70757" lon="3.06819">
        <ele>927.829</ele>
        <time>2024-09-04T09:53:30.946Z</time>
      </trkpt>
      <trkpt lat="43.70693" lon="3.06803">
        <ele>924.412</ele>
        <time>2024-09-04T09:54:26.946Z</time>
      </trkpt>
      <trkpt lat="43.70598" lon="3.0674">
        <ele>918.245</ele>
        <time>2024-09-04T09:55:55.946Z</time>
      </trkpt>
      <trkpt lat="43.70559" lon="3.06644">
        <ele>916.423</ele>
        <time>2024-09-04T09:59:02.945Z</time>
      </trkpt>
      <trkpt lat="43.70516" lon="3.06592">
        <ele>916.133</ele>
        <time>2024-09-04T09:59:51.945Z</time>
      </trkpt>
      <trkpt lat="43.70471" lon="3.06587">
        <ele>917.168</ele>
        <time>2024-09-04T10:00:37.944Z</time>
      </trkpt>
      <trkpt lat="43.70428" lon="3.06505">
        <ele>920.627</ele>
        <time>2024-09-04T10:02:01.944Z</time>
      </trkpt>
      <trkpt lat="43.70429" lon="3.06401">
        <ele>923.268</ele>
        <time>2024-09-04T10:03:12.943Z</time>
      </trkpt>
      <trkpt lat="43.7041" lon="3.06296">
        <ele>927.214</ele>
        <time>2024-09-04T10:04:27.942Z</time>
      </trkpt>
      <trkpt lat="43.70454" lon="3.06223">
        <ele>930.509</ele>
        <time>2024-09-04T10:05:27.942Z</time>
      </trkpt>
      <trkpt lat="43.70493" lon="3.06189">
        <ele>928.663</ele>
        <time>2024-09-04T10:06:10.942Z</time>
      </trkpt>
      <trkpt lat="43.70506" lon="3.06144">
        <ele>929.33</ele>
        <time>2024-09-04T10:06:44.942Z</time>
      </trkpt>
      <trkpt lat="43.70505" lon="3.06002">
        <ele>928.725</ele>
        <time>2024-09-04T10:08:14.942Z</time>
      </trkpt>
      <trkpt lat="43.70483" lon="3.05879">
        <ele>922.958</ele>
        <time>2024-09-04T10:09:31.942Z</time>
      </trkpt>
      <trkpt lat="43.70463" lon="3.05859">
        <ele>921.171</ele>
        <time>2024-09-04T10:09:52.942Z</time>
      </trkpt>
      <trkpt lat="43.70367" lon="3.05856">
        <ele>913.754</ele>
        <time>2024-09-04T10:11:13.941Z</time>
      </trkpt>
      <trkpt lat="43.70239" lon="3.0576">
        <ele>905.282</ele>
        <time>2024-09-04T10:13:13.941Z</time>
      </trkpt>
      <trkpt lat="43.70217" lon="3.05775">
        <ele>905.432</ele>
        <time>2024-09-04T10:13:36.941Z</time>
      </trkpt>
      <trkpt lat="43.7011" lon="3.06047">
        <ele>921.927</ele>
        <time>2024-09-04T10:17:25.939Z</time>
      </trkpt>
      <trkpt lat="43.70059" lon="3.06044">
        <ele>923.374</ele>
        <time>2024-09-04T10:18:11.939Z</time>
      </trkpt>
      <trkpt lat="43.69986" lon="3.06016">
        <ele>923.656</ele>
        <time>2024-09-04T10:19:16.939Z</time>
      </trkpt>
      <trkpt lat="43.69808" lon="3.05902">
        <ele>920.121</ele>
        <time>2024-09-04T10:22:05.939Z</time>
      </trkpt>
      <trkpt lat="43.69784" lon="3.05907">
        <ele>918.009</ele>
        <time>2024-09-04T10:22:25.939Z</time>
      </trkpt>
      <trkpt lat="43.69735" lon="3.05951">
        <ele>914.698</ele>
        <time>2024-09-04T10:23:13.939Z</time>
      </trkpt>
      <trkpt lat="43.69665" lon="3.06054">
        <ele>910.385</ele>
        <time>2024-09-04T10:24:36.939Z</time>
      </trkpt>
      <trkpt lat="43.69576" lon="3.06089">
        <ele>904.62</ele>
        <time>2024-09-04T10:26:34.939Z</time>
      </trkpt>
      <trkpt lat="43.69489" lon="3.06052">
        <ele>902.453</ele>
        <time>2024-09-04T10:27:48.939Z</time>
      </trkpt>
      <trkpt lat="43.69467" lon="3.06042">
        <ele>901.3</ele>
        <time>2024-09-04T10:29:14.939Z</time>
      </trkpt>
      <trkpt lat="43.6937" lon="3.05981">
        <ele>912.557</ele>
        <time>2024-09-04T10:31:06.938Z</time>
      </trkpt>
      <trkpt lat="43.69372" lon="3.05922">
        <ele>914.952</ele>
        <time>2024-09-04T10:31:51.937Z</time>
      </trkpt>
      <trkpt lat="43.69409" lon="3.05838">
        <ele>919.084</ele>
        <time>2024-09-04T10:32:56.937Z</time>
      </trkpt>
      <trkpt lat="43.69473" lon="3.0578">
        <ele>911.807</ele>
        <time>2024-09-04T10:34:02.936Z</time>
      </trkpt>
      <trkpt lat="43.69524" lon="3.05668">
        <ele>902.117</ele>
        <time>2024-09-04T10:35:23.936Z</time>
      </trkpt>
      <trkpt lat="43.69515" lon="3.05419">
        <ele>895.809</ele>
        <time>2024-09-04T10:39:14.935Z</time>
      </trkpt>
      <trkpt lat="43.6957" lon="3.05154">
        <ele>886.099</ele>
        <time>2024-09-04T10:42:15.932Z</time>
      </trkpt>
      <trkpt lat="43.69639" lon="3.05024">
        <ele>870.546</ele>
        <time>2024-09-04T10:43:54.932Z</time>
      </trkpt>
      <trkpt lat="43.69631" lon="3.04917">
        <ele>862.391</ele>
        <time>2024-09-04T10:45:01.932Z</time>
      </trkpt>
      <trkpt lat="43.69663" lon="3.04872">
        <ele>859.274</ele>
        <time>2024-09-04T10:45:41.932Z</time>
      </trkpt>
      <trkpt lat="43.69705" lon="3.0473">
        <ele>851.167</ele>
        <time>2024-09-04T10:47:22.931Z</time>
      </trkpt>
      <trkpt lat="43.69721" lon="3.04566">
        <ele>848.96</ele>
        <time>2024-09-04T10:49:00.930Z</time>
      </trkpt>
      <trkpt lat="43.69705" lon="3.04479">
        <ele>847.518</ele>
        <time>2024-09-04T10:49:53.930Z</time>
      </trkpt>
      <trkpt lat="43.69653" lon="3.04388">
        <ele>847.378</ele>
        <time>2024-09-04T10:51:02.929Z</time>
      </trkpt>
      <trkpt lat="43.69575" lon="3.04372">
        <ele>845.013</ele>
        <time>2024-09-04T10:52:03.929Z</time>
      </trkpt>
      <trkpt lat="43.69532" lon="3.04379">
        <ele>843.166</ele>
        <time>2024-09-04T10:52:43.928Z</time>
      </trkpt>
      <trkpt lat="43.69507" lon="3.04402">
        <ele>841.129</ele>
        <time>2024-09-04T10:53:18.928Z</time>
      </trkpt>
      <trkpt lat="43.69516" lon="3.04354">
        <ele>840.321</ele>
        <time>2024-09-04T10:54:21.928Z</time>
      </trkpt>
      <trkpt lat="43.69501" lon="3.04172">
        <ele>815.709</ele>
        <time>2024-09-04T10:56:53.926Z</time>
      </trkpt>
      <trkpt lat="43.69457" lon="3.04057">
        <ele>784.5</ele>
      </trkpt>
      <trkpt lat="43.69399" lon="3.03965">
        <ele>772</ele>
      </trkpt>
      <trkpt lat="43.69371" lon="3.03889">
        <ele>766.3</ele>
        <time>2024-09-04T11:01:15.924Z</time>
      </trkpt>
      <trkpt lat="43.69351" lon="3.03885">
        <ele>765.3</ele>
      </trkpt>
      <trkpt lat="43.69291" lon="3.0391">
        <ele>780.764</ele>
        <time>2024-09-04T11:02:38.924Z</time>
      </trkpt>
      <trkpt lat="43.69224" lon="3.04009">
        <ele>773.429</ele>
        <time>2024-09-04T11:03:57.923Z</time>
      </trkpt>
      <trkpt lat="43.69214" lon="3.04034">
        <ele>771.662</ele>
        <time>2024-09-04T11:04:14.923Z</time>
      </trkpt>
      <trkpt lat="43.6923" lon="3.04097">
        <ele>749.9</ele>
      </trkpt>
      <trkpt lat="43.69221" lon="3.04129">
        <ele>749</ele>
        <time>2024-09-04T11:08:22.923Z</time>
      </trkpt>
      <trkpt lat="43.69156" lon="3.0416">
        <ele>761.668</ele>
        <time>2024-09-04T11:09:24.922Z</time>
      </trkpt>
      <trkpt lat="43.69076" lon="3.04163">
        <ele>733.1</ele>
      </trkpt>
      <trkpt lat="43.68993" lon="3.04147">
        <ele>748.756</ele>
        <time>2024-09-04T11:12:02.921Z</time>
      </trkpt>
      <trkpt lat="43.68851" lon="3.04188">
        <ele>737.836</ele>
        <time>2024-09-04T11:13:57.920Z</time>
      </trkpt>
      <trkpt lat="43.68816" lon="3.0425">
        <ele>732.391</ele>
        <time>2024-09-04T11:14:42.920Z</time>
      </trkpt>
      <trkpt lat="43.68828" lon="3.0433">
        <ele>727.454</ele>
        <time>2024-09-04T11:15:29.920Z</time>
      </trkpt>
      <trkpt lat="43.68818" lon="3.0434">
        <ele>725.956</ele>
        <time>2024-09-04T11:15:42.919Z</time>
      </trkpt>
      <trkpt lat="43.68789" lon="3.04258">
        <ele>720.311</ele>
        <time>2024-09-04T11:16:45.919Z</time>
      </trkpt>
      <trkpt lat="43.68792" lon="3.04178">
        <ele>715.409</ele>
        <time>2024-09-04T11:17:31.919Z</time>
      </trkpt>
      <trkpt lat="43.68817" lon="3.04144">
        <ele>712.516</ele>
        <time>2024-09-04T11:17:58.918Z</time>
      </trkpt>
      <trkpt lat="43.68857" lon="3.04115">
        <ele>684.5</ele>
      </trkpt>
      <trkpt lat="43.689" lon="3.04099">
        <ele>683.2</ele>
      </trkpt>
      <trkpt lat="43.68898" lon="3.04088">
        <ele>705.643</ele>
        <time>2024-09-04T11:19:20.918Z</time>
      </trkpt>
      <trkpt lat="43.68771" lon="3.04114">
        <ele>692.428</ele>
        <time>2024-09-04T11:21:00.917Z</time>
      </trkpt>
      <trkpt lat="43.68731" lon="3.04156">
        <ele>686.511</ele>
        <time>2024-09-04T11:21:42.917Z</time>
      </trkpt>
      <trkpt lat="43.6871" lon="3.04235">
        <ele>653.9</ele>
      </trkpt>
      <trkpt lat="43.68701" lon="3.04235">
        <ele>679.534</ele>
        <time>2024-09-04T11:22:35.916Z</time>
      </trkpt>
      <trkpt lat="43.68728" lon="3.04113">
        <ele>645.4</ele>
        <time>2024-09-04T11:23:52.916Z</time>
      </trkpt>
      <trkpt lat="43.68721" lon="3.04102">
        <ele>639.5</ele>
        <time>2024-09-04T11:24:06.915Z</time>
      </trkpt>
      <trkpt lat="43.68689" lon="3.04177">
        <ele>634.1</ele>
      </trkpt>
      <trkpt lat="43.6866" lon="3.04223">
        <ele>631.9</ele>
        <time>2024-09-04T11:25:22.915Z</time>
      </trkpt>
      <trkpt lat="43.68613" lon="3.04221">
        <ele>651.85</ele>
        <time>2024-09-04T11:26:03.915Z</time>
      </trkpt>
      <trkpt lat="43.68622" lon="3.04248">
        <ele>625.1</ele>
      </trkpt>
      <trkpt lat="43.68642" lon="3.04272">
        <ele>623.8</ele>
      </trkpt>
      <trkpt lat="43.68631" lon="3.04279">
        <ele>649.044</ele>
        <time>2024-09-04T11:26:53.914Z</time>
      </trkpt>
      <trkpt lat="43.68561" lon="3.04224">
        <ele>639.605</ele>
        <time>2024-09-04T11:28:10.914Z</time>
      </trkpt>
      <trkpt lat="43.68509" lon="3.04214">
        <ele>634.515</ele>
        <time>2024-09-04T11:28:56.913Z</time>
      </trkpt>
      <trkpt lat="43.68512" lon="3.04199">
        <ele>605.4</ele>
      </trkpt>
      <trkpt lat="43.68411" lon="3.04024">
        <ele>613.709</ele>
        <time>2024-09-04T11:32:07.912Z</time>
      </trkpt>
      <trkpt lat="43.68359" lon="3.03979">
        <ele>574</ele>
      </trkpt>
      <trkpt lat="43.68324" lon="3.03959">
        <ele>600.745</ele>
        <time>2024-09-04T11:34:37.910Z</time>
      </trkpt>
      <trkpt lat="43.6831" lon="3.03911">
        <ele>567.8</ele>
        <time>2024-09-04T11:35:29.910Z</time>
      </trkpt>
      <trkpt lat="43.68291" lon="3.0385">
        <ele>596.257</ele>
        <time>2024-09-04T11:36:14.910Z</time>
      </trkpt>
      <trkpt lat="43.68236" lon="3.03774">
        <ele>588.19</ele>
        <time>2024-09-04T11:37:30.909Z</time>
      </trkpt>
      <trkpt lat="43.68171" lon="3.03641">
        <ele>573.173</ele>
        <time>2024-09-04T11:40:06.908Z</time>
      </trkpt>
      <trkpt lat="43.68112" lon="3.0363">
        <ele>564.116</ele>
        <time>2024-09-04T11:41:51.908Z</time>
      </trkpt>
      <trkpt lat="43.68025" lon="3.03578">
        <ele>510.2</ele>
        <time>2024-09-04T11:44:32.907Z</time>
      </trkpt>
      <trkpt lat="43.67992" lon="3.0355">
        <ele>502</ele>
      </trkpt>
      <trkpt lat="43.67948" lon="3.03478">
        <ele>522.934</ele>
        <time>2024-09-04T11:46:56.906Z</time>
      </trkpt>
      <trkpt lat="43.67964" lon="3.03374">
        <ele>472.3</ele>
      </trkpt>
      <trkpt lat="43.67959" lon="3.03367">
        <ele>508.019</ele>
        <time>2024-09-04T11:48:54.905Z</time>
      </trkpt>
      <trkpt lat="43.67891" lon="3.03437">
        <ele>450.9</ele>
        <time>2024-09-04T11:51:27.903Z</time>
      </trkpt>
      <trkpt lat="43.67888" lon="3.03405">
        <ele>443.8</ele>
        <time>2024-09-04T11:52:41.903Z</time>
      </trkpt>
      <trkpt lat="43.67863" lon="3.03464">
        <ele>440.9</ele>
      </trkpt>
      <trkpt lat="43.67851" lon="3.03476">
        <ele>438.7</ele>
      </trkpt>
      <trkpt lat="43.67844" lon="3.03472">
        <ele>438.5</ele>
        <time>2024-09-04T11:54:23.902Z</time>
      </trkpt>
      <trkpt lat="43.67844" lon="3.03439">
        <ele>434.6</ele>
      </trkpt>
      <trkpt lat="43.67857" lon="3.03385">
        <ele>425</ele>
      </trkpt>
      <trkpt lat="43.67857" lon="3.03359">
        <ele>420.3</ele>
      </trkpt>
      <trkpt lat="43.6785" lon="3.03338">
        <ele>415</ele>
      </trkpt>
      <trkpt lat="43.67857" lon="3.03313">
        <ele>413.4</ele>
      </trkpt>
      <trkpt lat="43.67872" lon="3.03282">
        <ele>413</ele>
        <time>2024-09-04T11:56:55.901Z</time>
      </trkpt>
      <trkpt lat="43.67821" lon="3.03339">
        <ele>409.6</ele>
        <time>2024-09-04T12:07:51.901Z</time>
      </trkpt>
      <trkpt lat="43.67784" lon="3.03334">
        <ele>404.7</ele>
      </trkpt>
      <trkpt lat="43.67748" lon="3.0334">
        <ele>399.3</ele>
      </trkpt>
      <trkpt lat="43.67687" lon="3.03331">
        <ele>399.184</ele>
        <time>2024-09-04T12:09:36.899Z</time>
      </trkpt>
      <trkpt lat="43.67575" lon="3.03387">
        <ele>405.119</ele>
        <time>2024-09-04T12:11:40.896Z</time>
      </trkpt>
      <trkpt lat="43.67446" lon="3.03411">
        <ele>416.372</ele>
        <time>2024-09-04T12:14:09.893Z</time>
      </trkpt>
      <trkpt lat="43.67351" lon="3.03446">
        <ele>420.135</ele>
        <time>2024-09-04T12:15:42.890Z</time>
      </trkpt>
      <trkpt lat="43.6732" lon="3.03415">
        <ele>420.5</ele>
      </trkpt>
      <trkpt lat="43.67297" lon="3.03404">
        <ele>457.948</ele>
        <time>2024-09-04T12:16:42.888Z</time>
      </trkpt>
      <trkpt lat="43.67255" lon="3.03413">
        <ele>413.9</ele>
      </trkpt>
      <trkpt lat="43.6723" lon="3.03405">
        <ele>454.466</ele>
        <time>2024-09-04T12:17:38.888Z</time>
      </trkpt>
      <trkpt lat="43.67212" lon="3.03365">
        <ele>452.676</ele>
        <time>2024-09-04T12:18:14.888Z</time>
      </trkpt>
      <trkpt lat="43.67122" lon="3.03287">
        <ele>451.391</ele>
        <time>2024-09-04T12:19:54.885Z</time>
      </trkpt>
      <trkpt lat="43.67111" lon="3.0331">
        <ele>451.167</ele>
        <time>2024-09-04T12:20:17.885Z</time>
      </trkpt>
      <trkpt lat="43.67073" lon="3.03332">
        <ele>414</ele>
        <time>2024-09-04T12:21:43.882Z</time>
      </trkpt>
      <trkpt lat="43.67036" lon="3.03399">
        <ele>421.5</ele>
        <time>2024-09-04T12:23:10.878Z</time>
      </trkpt>
      <trkpt lat="43.67003" lon="3.0343">
        <ele>428.3</ele>
        <time>2024-09-04T12:24:25.879Z</time>
      </trkpt>
      <trkpt lat="43.66989" lon="3.03433">
        <ele>429.4</ele>
      </trkpt>
      <trkpt lat="43.66975" lon="3.03426">
        <ele>432.147</ele>
        <time>2024-09-04T12:24:52.879Z</time>
      </trkpt>
      <trkpt lat="43.66949" lon="3.03405">
        <ele>430.8</ele>
        <time>2024-09-04T12:25:31.876Z</time>
      </trkpt>
      <trkpt lat="43.66901" lon="3.03423">
        <ele>435.339</ele>
        <time>2024-09-04T12:26:16.876Z</time>
      </trkpt>
      <trkpt lat="43.66875" lon="3.03425">
        <ele>437.8</ele>
        <time>2024-09-04T12:26:49.876Z</time>
      </trkpt>
      <trkpt lat="43.66855" lon="3.0346">
        <ele>432.3</ele>
      </trkpt>
      <trkpt lat="43.6682" lon="3.03503">
        <ele>435.6</ele>
        <time>2024-09-04T12:28:27.874Z</time>
      </trkpt>
      <trkpt lat="43.66804" lon="3.03561">
        <ele>437.8</ele>
      </trkpt>
      <trkpt lat="43.6678" lon="3.03602">
        <ele>438.2</ele>
        <time>2024-09-04T12:29:53.870Z</time>
      </trkpt>
      <trkpt lat="43.66741" lon="3.03641">
        <ele>439.8</ele>
      </trkpt>
      <trkpt lat="43.66719" lon="3.03652">
        <ele>440.9</ele>
        <time>2024-09-04T12:31:07.870Z</time>
      </trkpt>
      <trkpt lat="43.66704" lon="3.03658">
        <ele>438.9</ele>
      </trkpt>
      <trkpt lat="43.66689" lon="3.03653">
        <ele>442.286</ele>
        <time>2024-09-04T12:31:37.866Z</time>
      </trkpt>
      <trkpt lat="43.66627" lon="3.03575">
        <ele>435.561</ele>
        <time>2024-09-04T12:33:36.864Z</time>
      </trkpt>
      <trkpt lat="43.66619" lon="3.03566">
        <ele>434</ele>
      </trkpt>
      <trkpt lat="43.66598" lon="3.03572">
        <ele>434.162</ele>
        <time>2024-09-04T12:34:05.864Z</time>
      </trkpt>
      <trkpt lat="43.66529" lon="3.03629">
        <ele>432.983</ele>
        <time>2024-09-04T12:35:23.864Z</time>
      </trkpt>
      <trkpt lat="43.66473" lon="3.03624">
        <ele>433.811</ele>
        <time>2024-09-04T12:36:16.861Z</time>
      </trkpt>
      <trkpt lat="43.66423" lon="3.03649">
        <ele>434.809</ele>
        <time>2024-09-04T12:37:08.861Z</time>
      </trkpt>
      <trkpt lat="43.66332" lon="3.03718">
        <ele>431.477</ele>
        <time>2024-09-04T12:38:53.858Z</time>
      </trkpt>
      <trkpt lat="43.6628" lon="3.03791">
        <ele>428.484</ele>
        <time>2024-09-04T12:40:03.855Z</time>
      </trkpt>
      <trkpt lat="43.66216" lon="3.03824">
        <ele>428.889</ele>
        <time>2024-09-04T12:41:11.855Z</time>
      </trkpt>
      <trkpt lat="43.66184" lon="3.03864">
        <ele>425</ele>
      </trkpt>
      <trkpt lat="43.6618" lon="3.03866">
        <ele>424.3</ele>
      </trkpt>
      <trkpt lat="43.66176" lon="3.03861">
        <ele>424.3</ele>
        <time>2024-09-04T12:42:21.852Z</time>
      </trkpt>
      <trkpt lat="43.66168" lon="3.0386">
        <ele>422.9</ele>
      </trkpt>
      <trkpt lat="43.66137" lon="3.03855">
        <ele>421.195</ele>
        <time>2024-09-04T12:43:15.852Z</time>
      </trkpt>
      <trkpt lat="43.66118" lon="3.03876">
        <ele>420.6</ele>
      </trkpt>
      <trkpt lat="43.66075" lon="3.03905">
        <ele>415.8</ele>
      </trkpt>
      <trkpt lat="43.66038" lon="3.03933">
        <ele>413.478</ele>
        <time>2024-09-04T12:47:06.849Z</time>
      </trkpt>
      <trkpt lat="43.65997" lon="3.03949">
        <ele>402.6</ele>
        <time>2024-09-04T12:48:17.847Z</time>
      </trkpt>
      <trkpt lat="43.65981" lon="3.03973">
        <ele>400.8</ele>
      </trkpt>
      <trkpt lat="43.65977" lon="3.03973">
        <ele>398.6</ele>
        <time>2024-09-04T12:48:38.847Z</time>
      </trkpt>
      <trkpt lat="43.65982" lon="3.03956">
        <ele>396.6</ele>
      </trkpt>
      <trkpt lat="43.65978" lon="3.03949">
        <ele>393.3</ele>
      </trkpt>
      <trkpt lat="43.65976" lon="3.03951">
        <ele>392.5</ele>
        <time>2024-09-04T12:49:11.847Z</time>
      </trkpt>
      <trkpt lat="43.65974" lon="3.03953">
        <ele>391.8</ele>
      </trkpt>
      <trkpt lat="43.65952" lon="3.03983">
        <ele>387.6</ele>
        <time>2024-09-04T12:50:15.846Z</time>
      </trkpt>
      <trkpt lat="43.6595" lon="3.03973">
        <ele>384.9</ele>
      </trkpt>
      <trkpt lat="43.65961" lon="3.03958">
        <ele>386.6</ele>
      </trkpt>
      <trkpt lat="43.65948" lon="3.03956">
        <ele>379.6</ele>
      </trkpt>
      <trkpt lat="43.65959" lon="3.03928">
        <ele>377.5</ele>
      </trkpt>
      <trkpt lat="43.65948" lon="3.03932">
        <ele>373</ele>
        <time>2024-09-04T12:51:55.847Z</time>
      </trkpt>
      <trkpt lat="43.65947" lon="3.03925">
        <ele>370.5</ele>
        <time>2024-09-04T12:52:14.847Z</time>
      </trkpt>
      <trkpt lat="43.65934" lon="3.03929">
        <ele>365.7</ele>
      </trkpt>
      <trkpt lat="43.65929" lon="3.03938">
        <ele>365.4</ele>
      </trkpt>
      <trkpt lat="43.65924" lon="3.03935">
        <ele>362.4</ele>
      </trkpt>
      <trkpt lat="43.65926" lon="3.0392">
        <ele>359.8</ele>
      </trkpt>
      <trkpt lat="43.65913" lon="3.03933">
        <ele>356.8</ele>
      </trkpt>
      <trkpt lat="43.65909" lon="3.03924">
        <ele>353.3</ele>
        <time>2024-09-04T12:54:48.844Z</time>
      </trkpt>
      <trkpt lat="43.65901" lon="3.03928">
        <ele>350.9</ele>
        <time>2024-09-04T12:55:14.844Z</time>
      </trkpt>
      <trkpt lat="43.65885" lon="3.03944">
        <ele>348.7</ele>
        <time>2024-09-04T12:56:12.844Z</time>
      </trkpt>
      <trkpt lat="43.65845" lon="3.03938">
        <ele>338.4</ele>
      </trkpt>
      <trkpt lat="43.65823" lon="3.03942">
        <ele>333.8</ele>
        <time>2024-09-04T12:57:52.843Z</time>
      </trkpt>
      <trkpt lat="43.65786" lon="3.03983">
        <ele>324.3</ele>
      </trkpt>
      <trkpt lat="43.65728" lon="3.04027">
        <ele>325.197</ele>
        <time>2024-09-04T13:00:01.842Z</time>
      </trkpt>
      <trkpt lat="43.65683" lon="3.03988">
        <ele>318.7</ele>
        <time>2024-09-04T13:01:00.841Z</time>
      </trkpt>
      <trkpt lat="43.65658" lon="3.04008">
        <ele>319.1</ele>
        <time>2024-09-04T13:01:28.841Z</time>
      </trkpt>
      <trkpt lat="43.65606" lon="3.04055">
        <ele>324.841</ele>
        <time>2024-09-04T13:02:24.841Z</time>
      </trkpt>
      <trkpt lat="43.65577" lon="3.04065">
        <ele>326.861</ele>
        <time>2024-09-04T13:02:56.840Z</time>
      </trkpt>
      <trkpt lat="43.65544" lon="3.04143">
        <ele>327.986</ele>
        <time>2024-09-04T13:03:58.840Z</time>
      </trkpt>
      <trkpt lat="43.65517" lon="3.04152">
        <ele>328.9</ele>
        <time>2024-09-04T13:04:36.840Z</time>
      </trkpt>
      <trkpt lat="43.65497" lon="3.04156">
        <ele>329.3</ele>
        <time>2024-09-04T13:15:23.837Z</time>
      </trkpt>
      <trkpt lat="43.6547" lon="3.04154">
        <ele>328.9</ele>
      </trkpt>
      <trkpt lat="43.65434" lon="3.04141">
        <ele>330.145</ele>
        <time>2024-09-04T13:16:28.837Z</time>
      </trkpt>
      <trkpt lat="43.65284" lon="3.04048">
        <ele>326.4</ele>
        <time>2024-09-04T13:31:34.836Z</time>
      </trkpt>
      <trkpt lat="43.65252" lon="3.0401">
        <ele>326.2</ele>
        <time>2024-09-04T13:32:42.835Z</time>
      </trkpt>
      <trkpt lat="43.65248" lon="3.04017">
        <ele>324.1</ele>
        <time>2024-09-04T13:33:03.835Z</time>
      </trkpt>
      <trkpt lat="43.65241" lon="3.04027">
        <ele>323.4</ele>
        <time>2024-09-04T13:33:11.835Z</time>
      </trkpt>
      <trkpt lat="43.65227" lon="3.04036">
        <ele>327</ele>
        <time>2024-09-04T13:33:28.835Z</time>
      </trkpt>
      <trkpt lat="43.65218" lon="3.04044">
        <ele>328.7</ele>
      </trkpt>
      <trkpt lat="43.65214" lon="3.04049">
        <ele>329.1</ele>
        <time>2024-09-04T13:34:37.834Z</time>
      </trkpt>
      <trkpt lat="43.65198" lon="3.04054">
        <ele>329.8</ele>
        <time>2024-09-04T13:36:53.834Z</time>
      </trkpt>
      <trkpt lat="43.65191" lon="3.04061">
        <ele>330.7</ele>
      </trkpt>
      <trkpt lat="43.65193" lon="3.04088">
        <ele>330.3</ele>
        <time>2024-09-04T13:37:17.834Z</time>
        <extensions>
          <visugpx:TrkExtension xmlns:visugpx="https://www.visugpx.com/editgpx/">
            <visugpx:node>1</visugpx:node>
            </visugpx:TrkExtension>
        </extensions>
      </trkpt>
    </trkseg>
  </trk>
</gpx>